createdAt,value
2023-01-12T00:00:00.486Z,10.10
2023-01-12T00:02:28.395Z,14.40
2023-01-12T00:04:56.014Z,10.40
2023-01-12T00:07:24.014Z,9.70
2023-01-12T00:09:51.733Z,14.40
2023-01-12T00:12:19.299Z,10.40
2023-01-12T00:14:46.898Z,13.20
2023-01-12T00:17:14.466Z,14.10
2023-01-12T00:19:42.532Z,13.10
2023-01-12T00:22:10.068Z,9.80
2023-01-12T00:24:40.017Z,9.30
2023-01-12T00:27:15.084Z,12.70
2023-01-12T00:29:42.866Z,11.80
2023-01-12T00:32:20.884Z,11.10
2023-01-12T00:34:48.731Z,11.30
2023-01-12T00:37:16.866Z,10.30
2023-01-12T00:40:00.843Z,7.60
2023-01-12T00:42:29.608Z,9.80
2023-01-12T00:44:57.476Z,15.30
2023-01-12T00:47:25.840Z,12.90
2023-01-12T00:49:53.940Z,15.70
2023-01-12T00:52:30.284Z,13.00
2023-01-12T00:54:59.514Z,15.40
2023-01-12T00:57:27.847Z,14.90
2023-01-12T00:59:56.158Z,7.70
2023-01-12T01:02:24.228Z,11.60
2023-01-12T01:04:52.064Z,12.20
2023-01-12T01:07:20.187Z,14.30
2023-01-12T01:09:48.081Z,11.10
2023-01-12T01:12:16.224Z,8.20
2023-01-12T01:14:43.998Z,10.80
2023-01-12T01:17:11.891Z,7.50
2023-01-12T01:19:39.606Z,10.30
2023-01-12T01:22:07.548Z,9.60
2023-01-12T01:24:35.264Z,13.20
2023-01-12T01:27:02.978Z,12.30
2023-01-12T01:29:30.671Z,14.70
2023-01-12T01:31:58.467Z,10.40
2023-01-12T01:34:26.182Z,15.50
2023-01-12T01:36:53.757Z,13.10
2023-01-12T01:39:21.566Z,10.80
2023-01-12T01:41:49.325Z,11.00
2023-01-12T01:44:29.017Z,10.20
2023-01-12T01:47:01.606Z,8.90
2023-01-12T01:49:35.066Z,10.30
2023-01-12T01:52:16.610Z,12.30
2023-01-12T01:55:12.560Z,8.40
2023-01-12T01:57:48.742Z,10.80
2023-01-12T02:00:17.052Z,12.20
2023-01-12T02:02:47.213Z,12.00
2023-01-12T02:05:23.347Z,12.10
2023-01-12T02:07:52.659Z,13.50
2023-01-12T02:10:21.260Z,13.00
2023-01-12T02:12:50.617Z,14.30
2023-01-12T02:15:18.488Z,15.90
2023-01-12T02:18:08.257Z,13.80
2023-01-12T02:20:57.485Z,10.20
2023-01-12T02:23:43.878Z,10.00
2023-01-12T02:26:20.491Z,9.50
2023-01-12T02:29:13.072Z,10.70
2023-01-12T02:32:02.008Z,9.40
2023-01-12T02:34:44.910Z,14.00
2023-01-12T02:37:27.609Z,12.00
2023-01-12T02:40:16.355Z,11.60
2023-01-12T02:42:56.315Z,9.80
2023-01-12T02:45:48.380Z,7.70
2023-01-12T02:48:27.957Z,9.80
2023-01-12T02:51:16.167Z,9.00
2023-01-12T02:53:52.953Z,12.20
2023-01-12T02:56:30.360Z,6.00
2023-01-12T02:59:02.705Z,12.40
2023-01-12T03:01:31.991Z,9.30
2023-01-12T03:04:02.782Z,9.50
2023-01-12T03:06:56.732Z,7.60
2023-01-12T03:09:30.132Z,13.10
2023-01-12T03:12:03.906Z,9.50
2023-01-12T03:14:35.707Z,9.00
2023-01-12T03:17:09.812Z,8.80
2023-01-12T03:19:41.095Z,10.20
2023-01-12T03:22:13.471Z,9.50
2023-01-12T03:24:46.228Z,10.20
2023-01-12T03:27:22.315Z,10.10
2023-01-12T03:29:59.885Z,8.60
2023-01-12T03:32:27.568Z,8.90
2023-01-12T03:34:55.645Z,7.70
2023-01-12T03:37:45.732Z,8.10
2023-01-12T03:40:21.429Z,9.70
2023-01-12T03:43:03.687Z,8.00
2023-01-12T03:45:39.437Z,11.90
2023-01-12T03:48:25.150Z,10.70
2023-01-12T03:51:04.752Z,11.60
2023-01-12T03:53:33.725Z,10.70
2023-01-12T03:56:06.690Z,7.80
2023-01-12T03:58:35.532Z,13.10
2023-01-12T04:01:04.790Z,13.10
2023-01-12T04:03:32.862Z,10.40
2023-01-12T04:06:00.567Z,10.20
2023-01-12T04:08:28.490Z,12.80
2023-01-12T04:10:56.213Z,11.60
2023-01-12T04:13:23.910Z,13.70
2023-01-12T04:15:51.752Z,14.50
2023-01-12T04:18:19.472Z,11.70
2023-01-12T04:20:47.431Z,10.80
2023-01-12T04:23:15.586Z,9.70
2023-01-12T04:25:43.338Z,10.60
2023-01-12T04:28:11.054Z,11.00
2023-01-12T04:30:38.707Z,10.80
2023-01-12T04:33:07.329Z,10.40
2023-01-12T04:35:35.127Z,12.30
2023-01-12T04:38:09.486Z,12.20
2023-01-12T04:40:37.318Z,11.30
2023-01-12T04:43:07.320Z,9.90
2023-01-12T04:45:38.896Z,9.40
2023-01-12T04:48:09.608Z,10.10
2023-01-12T04:50:38.990Z,11.80
2023-01-12T04:53:09.912Z,12.90
2023-01-12T04:55:40.177Z,13.30
2023-01-12T04:58:09.090Z,13.70
2023-01-12T05:00:36.927Z,13.70
2023-01-12T05:03:04.612Z,10.30
2023-01-12T05:05:33.402Z,12.60
2023-01-12T05:08:02.783Z,12.90
2023-01-12T05:10:30.722Z,14.60
2023-01-12T05:12:59.052Z,12.10
2023-01-12T05:15:26.759Z,13.60
2023-01-12T05:17:54.999Z,13.20
2023-01-12T05:20:23.205Z,11.80
2023-01-12T05:22:50.786Z,14.20
2023-01-12T05:25:18.838Z,15.20
2023-01-12T05:27:46.899Z,15.30
2023-01-12T05:30:15.292Z,15.60
2023-01-12T05:32:43.001Z,14.90
2023-01-12T05:35:10.970Z,14.00
2023-01-12T05:37:38.531Z,13.70
2023-01-12T05:40:06.462Z,15.00
2023-01-12T05:42:34.405Z,15.00
2023-01-12T05:45:01.997Z,10.50
2023-01-12T05:47:29.558Z,13.10
2023-01-12T05:49:57.213Z,15.10
2023-01-12T05:52:25.203Z,14.80
2023-01-12T05:54:52.961Z,15.70
2023-01-12T05:57:20.800Z,17.40
2023-01-12T05:59:48.601Z,13.50
2023-01-12T06:02:16.996Z,13.60
2023-01-12T06:04:44.837Z,13.60
2023-01-12T06:07:14.151Z,10.00
2023-01-12T06:09:42.690Z,9.90
2023-01-12T06:12:13.945Z,19.70
2023-01-12T06:14:41.669Z,14.00
2023-01-12T06:17:09.642Z,14.80
2023-01-12T06:19:37.510Z,14.40
2023-01-12T06:22:07.565Z,12.10
2023-01-12T06:24:35.267Z,15.90
2023-01-12T06:27:03.317Z,13.10
2023-01-12T06:29:31.140Z,18.60
2023-01-12T06:31:59.184Z,18.50
2023-01-12T06:34:26.813Z,15.10
2023-01-12T06:36:54.816Z,14.60
2023-01-12T06:39:22.401Z,16.10
2023-01-12T06:41:50.287Z,15.30
2023-01-12T06:44:17.857Z,17.00
2023-01-12T06:46:45.963Z,15.90
2023-01-12T06:49:13.776Z,21.80
2023-01-12T06:51:41.367Z,19.10
2023-01-12T06:54:09.345Z,19.00
2023-01-12T06:56:37.102Z,13.10
2023-01-12T06:59:05.032Z,16.40
2023-01-12T07:01:32.848Z,13.90
2023-01-12T07:04:00.974Z,16.40
2023-01-12T07:06:28.728Z,15.20
2023-01-12T07:08:56.809Z,21.80
2023-01-12T07:11:24.778Z,18.40
2023-01-12T07:13:52.651Z,20.00
2023-01-12T07:16:20.321Z,18.60
2023-01-12T07:18:48.184Z,23.30
2023-01-12T07:21:16.248Z,21.90
2023-01-12T07:23:44.173Z,21.10
2023-01-12T07:26:12.423Z,21.50
2023-01-12T07:28:40.138Z,17.30
2023-01-12T07:31:08.037Z,22.30
2023-01-12T07:33:35.921Z,16.50
2023-01-12T07:36:04.056Z,16.50
2023-01-12T07:38:32.536Z,19.20
2023-01-12T07:41:01.577Z,20.40
2023-01-12T07:43:30.190Z,17.50
2023-01-12T07:45:58.758Z,19.70
2023-01-12T07:48:26.769Z,18.50
2023-01-12T07:50:55.002Z,17.40
2023-01-12T07:53:22.983Z,26.30
2023-01-12T07:55:50.884Z,18.70
2023-01-12T07:58:18.857Z,15.80
2023-01-12T08:00:46.528Z,20.30
2023-01-12T08:03:14.252Z,15.10
2023-01-12T08:05:42.263Z,22.40
2023-01-12T08:08:09.984Z,16.80
2023-01-12T08:10:37.932Z,18.20
2023-01-12T08:13:06.068Z,17.50
2023-01-12T08:15:40.503Z,20.00
2023-01-12T08:18:16.639Z,15.90
2023-01-12T08:20:45.880Z,16.10
2023-01-12T08:23:21.609Z,22.70
2023-01-12T08:25:54.988Z,19.70
2023-01-12T08:28:29.571Z,17.50
2023-01-12T08:30:57.445Z,17.90
2023-01-12T08:33:26.591Z,27.20
2023-01-12T08:35:54.717Z,21.20
2023-01-12T08:38:22.502Z,21.60
2023-01-12T08:40:50.322Z,19.60
2023-01-12T08:43:17.874Z,21.00
2023-01-12T08:45:45.581Z,22.30
2023-01-12T08:48:13.315Z,18.40
2023-01-12T08:50:41.338Z,22.00
2023-01-12T08:53:10.397Z,12.60
2023-01-12T08:55:38.245Z,19.80
2023-01-12T08:58:05.923Z,20.40
2023-01-12T09:00:33.586Z,18.10
2023-01-12T09:03:01.470Z,14.70
2023-01-12T09:05:29.482Z,17.30
2023-01-12T09:07:57.039Z,16.40
2023-01-12T09:10:24.819Z,16.30
2023-01-12T09:12:52.789Z,14.50
2023-01-12T09:15:20.740Z,17.10
2023-01-12T09:17:55.517Z,16.70
2023-01-12T09:20:23.353Z,15.80
2023-01-12T09:22:51.127Z,12.80
2023-01-12T09:25:18.649Z,13.10
2023-01-12T09:27:46.820Z,16.10
2023-01-12T09:30:15.085Z,15.50
2023-01-12T09:32:42.985Z,14.80
2023-01-12T09:35:10.553Z,16.50
2023-01-12T09:37:38.190Z,17.50
2023-01-12T09:40:06.561Z,14.10
2023-01-12T09:42:34.849Z,17.00
2023-01-12T09:45:16.585Z,17.20
2023-01-12T09:47:56.790Z,12.00
2023-01-12T09:50:29.202Z,15.90
2023-01-12T09:52:59.590Z,18.10
2023-01-12T09:55:43.989Z,17.60
2023-01-12T09:58:50.204Z,13.50
2023-01-12T10:01:28.704Z,13.20
2023-01-12T10:04:01.607Z,12.70
2023-01-12T10:06:30.698Z,10.80
2023-01-12T10:09:01.924Z,8.80
2023-01-12T10:11:42.070Z,12.30
2023-01-12T10:14:25.069Z,10.50
2023-01-12T10:17:18.062Z,9.40
2023-01-12T10:20:25.876Z,10.40
2023-01-12T10:23:07.937Z,9.20
2023-01-12T10:25:47.853Z,8.40
2023-01-12T10:28:23.309Z,6.30
2023-01-12T10:30:52.867Z,9.30
2023-01-12T10:33:30.557Z,6.80
2023-01-12T10:36:18.234Z,8.90
2023-01-12T10:38:52.513Z,7.00
2023-01-12T10:41:22.370Z,9.90
2023-01-12T10:44:14.948Z,8.80
2023-01-12T10:46:42.666Z,9.20
2023-01-12T10:49:25.513Z,5.90
2023-01-12T10:52:02.584Z,6.50
2023-01-12T10:54:36.586Z,7.00
2023-01-12T10:57:15.523Z,8.00
2023-01-12T10:59:52.179Z,7.40
2023-01-12T11:02:20.482Z,7.10
2023-01-12T11:04:51.429Z,7.50
2023-01-12T11:07:25.020Z,7.20
2023-01-12T11:09:53.711Z,9.10
2023-01-12T11:12:35.063Z,7.10
2023-01-12T11:15:04.521Z,8.40
2023-01-12T11:17:49.928Z,9.90
2023-01-12T11:20:42.587Z,6.70
2023-01-12T11:23:34.433Z,11.60
2023-01-12T11:26:08.624Z,6.70
2023-01-12T11:28:43.319Z,6.90
2023-01-12T11:31:21.579Z,5.90
2023-01-12T11:34:21.918Z,7.70
2023-01-12T11:36:54.394Z,6.00
2023-01-12T11:39:24.092Z,8.70
2023-01-12T11:41:55.494Z,8.10
2023-01-12T11:44:32.357Z,8.20
2023-01-12T11:47:06.117Z,7.20
2023-01-12T11:49:45.005Z,7.20
2023-01-12T11:52:16.140Z,7.10
2023-01-12T11:54:43.910Z,6.40
2023-01-12T11:57:32.994Z,7.00
2023-01-12T12:00:13.784Z,10.50
2023-01-12T12:02:45.571Z,5.90
2023-01-12T12:05:44.031Z,6.80
2023-01-12T12:08:36.317Z,6.90
2023-01-12T12:11:22.960Z,4.20
2023-01-12T12:13:53.496Z,5.20
2023-01-12T12:16:27.101Z,8.00
2023-01-12T12:19:06.950Z,7.90
2023-01-12T12:22:10.002Z,6.80
2023-01-12T12:24:46.079Z,8.00
2023-01-12T12:27:34.432Z,4.20
2023-01-12T12:30:10.978Z,6.30
2023-01-12T12:33:14.123Z,6.90
2023-01-12T12:35:56.247Z,6.60
2023-01-12T12:38:55.061Z,3.80
2023-01-12T12:41:41.548Z,8.30
2023-01-12T12:44:18.624Z,5.00
2023-01-12T12:47:30.172Z,7.00
2023-01-12T12:50:00.344Z,6.30
2023-01-12T12:52:29.796Z,4.60
2023-01-12T12:54:57.440Z,5.20
2023-01-12T12:57:25.073Z,6.00
2023-01-12T12:59:54.734Z,7.30
2023-01-12T13:02:53.683Z,5.20
2023-01-12T13:05:46.630Z,5.30
2023-01-12T13:08:24.247Z,5.80
2023-01-12T13:10:55.061Z,4.90
2023-01-12T13:13:26.930Z,5.70
2023-01-12T13:16:17.982Z,6.90
2023-01-12T13:18:49.123Z,5.40
2023-01-12T13:21:43.224Z,6.40
2023-01-12T13:24:10.738Z,5.60
2023-01-12T13:26:43.560Z,7.50
2023-01-12T13:29:23.426Z,6.60
2023-01-12T13:31:54.111Z,9.00
2023-01-12T13:34:36.974Z,6.40
2023-01-12T13:37:43.595Z,6.10
2023-01-12T13:40:26.793Z,6.50
2023-01-12T13:43:01.726Z,5.60
2023-01-12T13:45:30.213Z,7.70
2023-01-12T13:47:58.912Z,7.50
2023-01-12T13:50:28.112Z,10.80
2023-01-12T13:52:57.997Z,7.10
2023-01-12T13:55:31.338Z,7.30
2023-01-12T13:58:16.909Z,7.20
2023-01-12T14:00:54.477Z,6.60
2023-01-12T14:03:54.401Z,8.00
2023-01-12T14:06:47.806Z,5.50
2023-01-12T14:09:30.605Z,6.70
2023-01-12T14:12:05.111Z,6.10
2023-01-12T14:14:54.080Z,6.50
2023-01-12T14:17:29.204Z,6.50
2023-01-12T14:19:56.832Z,10.00
2023-01-12T14:22:24.500Z,13.40
2023-01-12T14:24:52.599Z,12.10
2023-01-12T14:27:26.142Z,10.20
2023-01-12T14:29:55.278Z,10.90
2023-01-12T14:32:24.497Z,9.70
2023-01-12T14:34:52.649Z,10.70
2023-01-12T14:37:26.187Z,9.00
2023-01-12T14:39:55.505Z,16.30
2023-01-12T14:42:23.975Z,13.70
2023-01-12T14:44:57.556Z,13.70
2023-01-12T14:47:33.218Z,14.60
2023-01-12T14:50:28.774Z,10.40
2023-01-12T14:52:57.107Z,9.50
2023-01-12T14:55:24.652Z,7.90
2023-01-12T14:57:58.439Z,8.30
2023-01-12T15:00:31.676Z,8.80
2023-01-12T15:03:02.580Z,18.20
2023-01-12T15:05:33.485Z,11.00
2023-01-12T15:08:21.026Z,12.70
2023-01-12T15:11:04.856Z,11.00
2023-01-12T15:13:34.782Z,15.60
2023-01-12T15:16:04.068Z,15.90
2023-01-12T15:18:31.844Z,12.60
2023-01-12T15:21:00.529Z,20.50
2023-01-12T15:23:32.276Z,21.30
2023-01-12T15:25:59.873Z,19.40
2023-01-12T15:28:27.643Z,18.40
2023-01-12T15:30:56.083Z,17.30
2023-01-12T15:33:23.772Z,18.30
2023-01-12T15:35:51.466Z,21.40
2023-01-12T15:38:19.126Z,18.30
2023-01-12T15:40:47.620Z,12.30
2023-01-12T15:43:17.214Z,11.70
2023-01-12T15:45:46.861Z,9.70
2023-01-12T15:48:14.887Z,12.20
2023-01-12T15:50:45.350Z,11.00
2023-01-12T15:53:19.827Z,7.20
2023-01-12T15:55:48.924Z,7.30
2023-01-12T15:58:16.793Z,8.40
2023-01-12T16:00:45.198Z,12.60
2023-01-12T16:03:32.211Z,10.80
2023-01-12T16:06:01.237Z,10.10
2023-01-12T16:08:29.451Z,11.20
2023-01-12T16:10:56.995Z,10.50
2023-01-12T16:13:25.294Z,10.90
2023-01-12T16:15:53.255Z,6.80
2023-01-12T16:18:21.112Z,6.70
2023-01-12T16:20:49.205Z,8.90
2023-01-12T16:23:16.951Z,10.30
2023-01-12T16:25:44.869Z,8.90
2023-01-12T16:28:12.660Z,11.60
2023-01-12T16:30:43.094Z,8.20
2023-01-12T16:35:38.928Z,11.80
2023-01-12T16:38:06.751Z,18.10
2023-01-12T16:40:34.742Z,12.90
2023-01-12T16:43:02.401Z,14.50
2023-01-12T16:45:30.519Z,11.60
2023-01-12T16:47:58.521Z,11.30
2023-01-12T16:50:26.487Z,14.20
2023-01-12T16:52:54.051Z,11.90
2023-01-12T16:55:21.864Z,13.70
2023-01-12T16:57:49.419Z,14.10
2023-01-12T17:00:17.856Z,13.20
2023-01-12T17:02:46.038Z,13.10
2023-01-12T17:05:14.119Z,14.80
2023-01-12T17:07:41.871Z,14.90
2023-01-12T17:10:10.399Z,18.40
2023-01-12T17:12:38.263Z,15.10
2023-01-12T17:15:21.749Z,22.00
2023-01-12T17:17:49.596Z,12.30
2023-01-12T17:20:18.047Z,18.10
2023-01-12T17:22:47.108Z,17.40
2023-01-12T17:25:15.134Z,18.10
2023-01-12T17:27:43.123Z,22.90
2023-01-12T17:30:11.619Z,18.70
2023-01-12T17:32:40.270Z,20.20
2023-01-12T17:35:08.118Z,16.40
2023-01-12T17:37:36.278Z,16.80
2023-01-12T17:40:04.675Z,17.90
2023-01-12T17:42:32.799Z,20.60
2023-01-12T17:45:01.704Z,18.10
2023-01-12T17:47:29.666Z,21.30
2023-01-12T17:49:58.289Z,20.60
2023-01-12T17:52:26.330Z,19.30
2023-01-12T17:54:54.104Z,18.20
2023-01-12T17:57:22.162Z,18.30
2023-01-12T17:59:50.470Z,22.20
2023-01-12T18:02:18.365Z,24.80
2023-01-12T18:04:46.571Z,30.20
2023-01-12T18:07:14.601Z,28.20
2023-01-12T18:09:42.281Z,25.90
2023-01-12T18:12:10.085Z,26.40
2023-01-12T18:14:38.383Z,24.60
2023-01-12T18:17:06.429Z,23.10
2023-01-12T18:19:34.393Z,29.50
2023-01-12T18:22:02.080Z,33.90
2023-01-12T18:24:30.011Z,39.70
2023-01-12T18:26:57.912Z,44.30
2023-01-12T18:29:25.721Z,44.90
2023-01-12T18:31:53.331Z,74.50
2023-01-12T18:34:20.962Z,45.20
2023-01-12T18:36:48.636Z,35.50
2023-01-12T18:39:18.441Z,31.70
2023-01-12T18:41:46.924Z,27.00
2023-01-12T18:44:14.754Z,30.40
2023-01-12T18:46:43.875Z,20.80
2023-01-12T18:49:11.647Z,23.20
2023-01-12T18:51:39.348Z,23.40
2023-01-12T18:54:07.082Z,21.40
2023-01-12T18:56:36.192Z,20.70
2023-01-12T18:59:03.831Z,18.90
2023-01-12T19:01:31.824Z,17.00
2023-01-12T19:03:59.661Z,18.50
2023-01-12T19:06:27.370Z,22.90
2023-01-12T19:08:55.386Z,18.90
2023-01-12T19:11:23.436Z,23.00
2023-01-12T19:13:51.623Z,24.30
2023-01-12T19:16:19.559Z,15.30
2023-01-12T19:18:47.217Z,21.70
2023-01-12T19:21:15.014Z,22.20
2023-01-12T19:23:42.797Z,19.30
2023-01-12T19:26:10.915Z,23.40
2023-01-12T19:28:39.624Z,26.40
2023-01-12T19:31:09.754Z,21.30
2023-01-12T19:36:09.851Z,21.80
2023-01-12T19:38:37.848Z,20.70
2023-01-12T19:41:08.381Z,19.20
2023-01-12T19:43:36.564Z,17.50
2023-01-12T19:46:04.507Z,24.70
2023-01-12T19:48:32.836Z,20.40
2023-01-12T19:51:09.529Z,22.90
2023-01-12T19:53:39.301Z,19.10
2023-01-12T19:56:11.666Z,16.70
2023-01-12T19:58:39.783Z,20.90
2023-01-12T20:01:08.102Z,17.60
2023-01-12T20:03:36.087Z,10.10
2023-01-12T20:06:06.795Z,13.10
2023-01-12T20:08:34.823Z,10.30
2023-01-12T20:11:05.340Z,9.40
2023-01-12T20:13:35.286Z,12.00
2023-01-12T20:16:07.751Z,13.20
2023-01-12T20:18:36.396Z,11.40
2023-01-12T20:21:11.804Z,12.00
2023-01-12T20:23:39.580Z,12.70
2023-01-12T20:26:09.621Z,12.10
2023-01-12T20:28:37.386Z,13.90
2023-01-12T20:31:10.652Z,10.10
2023-01-12T20:33:39.231Z,11.80
2023-01-12T20:36:12.945Z,12.10
2023-01-12T20:38:41.141Z,12.20
2023-01-12T20:41:10.212Z,10.80
2023-01-12T20:43:39.045Z,13.30
2023-01-12T20:46:11.853Z,10.20
2023-01-12T20:48:40.960Z,10.10
2023-01-12T20:51:10.505Z,14.60
2023-01-12T20:53:38.594Z,13.50
2023-01-12T20:56:07.451Z,13.80
2023-01-12T20:58:36.103Z,11.90
2023-01-12T21:01:09.236Z,13.80
2023-01-12T21:03:37.534Z,15.60
2023-01-12T21:06:14.477Z,10.00
2023-01-12T21:08:44.079Z,14.10
2023-01-12T21:11:17.769Z,9.80
2023-01-12T21:13:45.912Z,16.20
2023-01-12T21:16:17.037Z,10.90
2023-01-12T21:18:45.439Z,8.50
2023-01-12T21:21:13.724Z,11.60
2023-01-12T21:23:41.977Z,9.80
2023-01-12T21:26:10.166Z,11.20
2023-01-12T21:28:39.638Z,8.20
2023-01-12T21:31:10.440Z,8.90
2023-01-12T21:33:38.410Z,9.60
2023-01-12T21:36:07.111Z,10.30
2023-01-12T21:38:34.999Z,6.80
2023-01-12T21:41:05.106Z,11.30
2023-01-12T21:43:33.547Z,9.40
2023-01-12T21:46:07.829Z,7.10
2023-01-12T21:48:36.266Z,12.30
2023-01-12T21:51:05.833Z,11.40
2023-01-12T21:53:33.752Z,10.20
2023-01-12T21:56:03.596Z,6.10
2023-01-12T21:58:33.922Z,7.30
2023-01-12T22:01:08.581Z,7.30
2023-01-12T22:03:36.565Z,8.20
2023-01-12T22:06:06.527Z,10.30
2023-01-12T22:08:39.601Z,10.90
2023-01-12T22:11:16.003Z,9.70
2023-01-12T22:13:44.315Z,6.40
2023-01-12T22:16:14.361Z,6.70
2023-01-12T22:18:47.799Z,6.70
2023-01-12T22:21:17.536Z,6.30
2023-01-12T22:23:45.533Z,5.70
2023-01-12T22:26:15.155Z,7.90
2023-01-12T22:28:44.445Z,8.60
2023-01-12T22:31:13.551Z,7.70
2023-01-12T22:33:49.355Z,6.80
2023-01-12T22:36:17.294Z,5.50
2023-01-12T22:38:45.290Z,8.10
2023-01-12T22:41:13.848Z,5.80
2023-01-12T22:43:42.026Z,6.30
2023-01-12T22:46:13.436Z,5.90
2023-01-12T22:48:41.769Z,9.90
2023-01-12T22:51:10.243Z,9.30
2023-01-12T22:53:38.163Z,7.30
2023-01-12T22:56:06.472Z,9.20
2023-01-12T22:58:34.219Z,7.00
2023-01-12T23:01:09.310Z,10.70
2023-01-12T23:03:37.798Z,9.60
2023-01-12T23:06:07.016Z,12.90
2023-01-12T23:08:34.821Z,8.60
2023-01-12T23:11:07.097Z,8.50
2023-01-12T23:13:35.778Z,8.30
2023-01-12T23:16:06.869Z,7.80
2023-01-12T23:18:36.607Z,6.90
2023-01-12T23:21:08.273Z,7.80
2023-01-12T23:23:37.640Z,9.30
2023-01-12T23:26:07.008Z,7.20
2023-01-12T23:28:36.017Z,8.50
2023-01-12T23:31:05.998Z,7.90
2023-01-12T23:33:34.160Z,6.90
2023-01-12T23:36:10.810Z,9.70
2023-01-12T23:38:38.713Z,8.50
2023-01-12T23:41:18.368Z,8.80
2023-01-12T23:43:48.419Z,6.70
2023-01-12T23:46:18.336Z,10.70
2023-01-12T23:48:46.170Z,7.60
2023-01-12T23:51:14.168Z,8.60
2023-01-12T23:53:42.645Z,8.60
2023-01-12T23:56:13.254Z,7.50
2023-01-12T23:58:42.043Z,6.40
